Time;durP1;ratioP1;P1;durP2;ratioP2;P2;SDS_P1;SDS_P2;PMS_P1;PMS_P2;Temp;Humidity;BMP_temperature;BMP_pressure;BME280_temperature;BME280_humidity;BME280_pressure;Samples;Min_cycle;Max_cycle;Signal;HPM_P1;HPM_P2
2022/01/30 00:00:31;;;;;;;206.27;169.07;;;;;;;15.03;32.82;94384.78;5057289;28;20531;-66
2022/01/30 00:03:03;;;;;;;198.70;163.52;;;;;;;15.01;32.51;94387.91;5060904;28;20047;-66
2022/01/30 00:05:30;;;;;;;197.63;162.15;;;;;;;14.99;32.75;94392.97;5061244;28;20063;-66
2022/01/30 00:07:55;;;;;;;196.20;157.93;;;;;;;15.01;32.96;94400.63;5059886;28;20138;-67
2022/01/30 00:10:22;;;;;;;198.20;162.85;;;;;;;15.01;32.86;94389.84;5062228;28;20053;-66
2022/01/30 00:12:54;;;;;;;197.70;160.40;;;;;;;15.03;33.04;94388.22;5057336;28;20067;-67
2022/01/30 00:15:34;;;;;;;202.00;163.23;;;;;;;15.03;33.13;94376.69;5059759;28;20109;-67
2022/01/30 00:18:10;;;;;;;194.27;157.70;;;;;;;15.00;32.97;94380.25;5063718;28;20583;-67
2022/01/30 00:20:38;;;;;;;193.20;153.68;;;;;;;14.97;33.36;94362.25;5060985;28;20033;-67
2022/01/30 00:23:43;;;;;;;201.05;164.80;;;;;;;15.02;33.11;94375.19;5056848;28;20040;-67
2022/01/30 00:25:57;;;;;;;196.52;158.57;;;;;;;15.04;33.07;94384.34;5053051;28;20056;-67
2022/01/30 00:28:25;;;;;;;205.40;166.68;;;;;;;15.04;32.91;94372.81;5054951;28;20055;-68
2022/01/30 00:30:55;;;;;;;194.50;158.57;;;;;;;15.05;33.05;94371.66;5042780;28;20079;-68
2022/01/30 00:33:20;;;;;;;194.80;157.82;;;;;;;15.07;32.79;94380.81;5043509;28;20044;-67
2022/01/30 00:35:46;;;;;;;199.27;163.65;;;;;;;15.07;32.67;94380.06;5061209;28;20051;-66
2022/01/30 00:38:15;;;;;;;201.15;165.23;;;;;;;15.04;33.01;94370.91;5065761;28;20052;-67
2022/01/30 00:40:42;;;;;;;204.77;165.90;;;;;;;15.04;33.10;94368.19;5065560;28;20058;-67
2022/01/30 00:43:08;;;;;;;212.27;171.02;;;;;;;15.06;32.87;94365.84;5062562;28;20056;-67
2022/01/30 00:45:35;;;;;;;202.35;163.68;;;;;;;15.06;32.82;94349.69;5064914;28;20076;-67
2022/01/30 00:48:00;;;;;;;197.90;162.05;;;;;;;15.07;32.84;94363.91;5064961;28;20519;-68
2022/01/30 00:50:26;;;;;;;198.52;162.52;;;;;;;15.04;32.93;94351.28;5062711;28;20072;-67
2022/01/30 00:52:55;;;;;;;203.35;166.75;;;;;;;15.03;32.97;94361.31;5065868;28;20443;-66
2022/01/30 00:55:25;;;;;;;197.00;159.95;;;;;;;15.07;32.88;94363.91;5065224;28;20166;-67
2022/01/30 00:57:51;;;;;;;205.90;168.63;;;;;;;15.05;32.85;94371.66;5065592;28;20048;-67
2022/01/30 01:00:17;;;;;;;198.65;161.13;;;;;;;15.07;32.88;94372.75;5064592;28;20048;-67
2022/01/30 01:02:43;;;;;;;208.20;170.15;;;;;;;15.05;32.98;94377.03;5062840;28;20190;-67
2022/01/30 01:05:09;;;;;;;204.35;168.25;;;;;;;15.05;32.98;94385.13;5063696;28;20051;-67
2022/01/30 01:07:38;;;;;;;194.73;159.13;;;;;;;15.01;33.26;94379.81;5060468;28;20085;-66
2022/01/30 01:10:12;;;;;;;189.90;155.43;;;;;;;15.00;33.23;94378.31;5067556;28;20052;-67
2022/01/30 01:23:25;;;;;;;200.60;162.70;;;;;;;15.02;33.20;94383.28;5065089;28;20094;-66
2022/01/30 01:25:55;;;;;;;196.50;159.68;;;;;;;15.00;33.21;94391.78;5069061;28;20040;-66
2022/01/30 01:28:21;;;;;;;195.32;158.90;;;;;;;14.99;33.28;94370.66;5067634;28;20462;-66
2022/01/30 01:30:47;;;;;;;205.50;167.18;;;;;;;14.95;33.41;94380.78;5064763;28;20059;-67
2022/01/30 01:33:13;;;;;;;198.90;162.55;;;;;;;14.97;33.20;94373.78;5065109;28;21384;-67
2022/01/30 01:35:39;;;;;;;200.23;165.25;;;;;;;15.02;33.33;94359.78;5064542;28;20041;-66
2022/01/30 01:38:10;;;;;;;199.05;162.10;;;;;;;15.02;33.34;94373.25;5067660;28;20042;-67
2022/01/30 01:40:36;;;;;;;198.85;163.07;;;;;;;14.97;33.57;94365.69;5067347;28;20041;-67
2022/01/30 01:43:02;;;;;;;204.15;167.57;;;;;;;14.92;33.66;94366.25;5063667;28;20085;-67
2022/01/30 01:45:33;;;;;;;205.23;166.90;;;;;;;14.97;33.47;94364.94;5063848;28;20044;-67
2022/01/30 01:48:02;;;;;;;204.48;167.63;;;;;;;14.95;33.57;94367.31;5062877;28;20039;-66
2022/01/30 01:50:42;;;;;;;199.48;161.48;;;;;;;14.94;33.70;94361.19;5066057;28;20060;-67
2022/01/30 01:53:11;;;;;;;197.27;160.02;;;;;;;14.97;33.47;94356.84;5061743;28;20390;-67
2022/01/30 01:55:38;;;;;;;193.90;159.35;;;;;;;15.02;33.39;94359.78;5062872;28;20052;-66
2022/01/30 01:58:04;;;;;;;198.82;162.13;;;;;;;15.02;33.06;94365.16;5066993;28;20472;-67
2022/01/30 02:00:31;;;;;;;198.20;162.50;;;;;;;15.01;33.36;94363.66;5063896;28;20135;-67
2022/01/30 02:02:57;;;;;;;198.85;164.00;;;;;;;15.01;33.09;94363.66;5059670;28;20063;-67
2022/01/30 02:05:25;;;;;;;206.70;169.60;;;;;;;14.99;33.60;94368.72;5058134;28;20037;-67
2022/01/30 02:10:28;;;;;;;195.07;160.00;;;;;;;15.00;33.18;94367.53;5062798;28;20098;-66
2022/01/30 02:13:07;;;;;;;196.25;160.48;;;;;;;15.04;33.38;94370.91;5044886;28;20128;-66
2022/01/30 02:23:55;;;;;;;208.23;168.57;;;;;;;15.03;33.31;94360.53;5064602;28;20051;-66
2022/01/30 02:24:03;;;;;;;193.63;156.90;;;;;;;15.04;33.33;94348.59;5062908;28;20052;-68
2022/01/30 02:26:40;;;;;;;192.07;156.73;;;;;;;15.04;33.35;94332.44;5060496;28;20056;-67
2022/01/30 02:29:06;;;;;;;201.27;163.88;;;;;;;15.00;33.41;94340.59;5060890;28;20093;-68
2022/01/30 02:31:35;;;;;;;192.38;155.20;;;;;;;15.02;33.47;94330.16;5064360;28;20366;-67
2022/01/30 02:34:01;;;;;;;191.80;157.65;;;;;;;15.02;33.31;94332.09;5064033;28;20144;-67
2022/01/30 02:36:26;;;;;;;202.02;165.40;;;;;;;15.01;33.40;94323.25;5059472;28;20113;-67
2022/01/30 02:38:56;;;;;;;199.13;165.18;;;;;;;15.03;33.17;94328.22;5062204;28;20528;-67
2022/01/30 02:41:22;;;;;;;198.07;162.00;;;;;;;15.05;33.23;94325.84;5063115;28;20036;-67
2022/01/30 02:43:58;;;;;;;201.18;165.10;;;;;;;15.04;33.45;94333.19;5066197;28;21938;-67
2022/01/30 02:46:31;;;;;;;203.77;166.35;;;;;;;15.02;33.52;94330.16;5060101;28;20044;-67
2022/01/30 02:48:59;;;;;;;199.70;164.40;;;;;;;15.02;33.29;94332.84;5062452;28;20082;-67
2022/01/30 02:51:33;;;;;;;199.25;160.25;;;;;;;15.01;33.40;94311.72;5062486;28;20071;-67
2022/01/30 02:54:07;;;;;;;199.75;162.80;;;;;;;15.02;33.27;94307.84;5065625;28;20070;-67
2022/01/30 02:56:34;;;;;;;206.73;167.90;;;;;;;15.04;33.41;94324.34;5060586;28;20109;-67
2022/01/30 02:59:00;;;;;;;194.35;157.30;;;;;;;15.03;33.37;94328.22;5063624;28;20049;-67
2022/01/30 03:01:25;;;;;;;196.70;159.63;;;;;;;15.02;33.34;94349.00;5061796;28;20048;-68
2022/01/30 03:03:52;;;;;;;198.30;162.57;;;;;;;15.05;33.32;94339.31;5061770;28;20459;-66
2022/01/30 03:06:17;;;;;;;205.52;168.50;;;;;;;15.05;33.41;94331.25;5060926;28;20839;-66
2022/01/30 03:08:43;;;;;;;195.55;161.23;;;;;;;15.04;33.19;94325.09;5058432;28;20050;-68
2022/01/30 03:11:08;;;;;;;198.40;162.23;;;;;;;15.02;33.45;94324.78;5063105;28;20076;-68
2022/01/30 03:13:34;;;;;;;198.20;162.90;;;;;;;15.04;33.32;94316.28;5041664;28;20243;-67
2022/01/30 03:16:03;;;;;;;205.25;166.77;;;;;;;15.05;33.07;94305.06;5063345;28;20151;-68
2022/01/30 03:18:31;;;;;;;193.45;155.60;;;;;;;15.03;33.55;94302.03;5062595;28;20036;-67
2022/01/30 03:20:56;;;;;;;207.98;168.93;;;;;;;14.99;33.28;94296.00;5064693;28;20468;-66
2022/01/30 03:23:22;;;;;;;196.80;161.00;;;;;;;14.99;33.26;94293.31;5063585;28;20052;-67
2022/01/30 03:25:53;;;;;;;198.55;161.60;;;;;;;15.03;33.26;94290.53;5064135;28;20046;-66
2022/01/30 03:28:19;;;;;;;196.40;161.68;;;;;;;15.03;33.35;94293.97;5063506;28;20125;-67
2022/01/30 03:30:45;;;;;;;196.30;160.35;;;;;;;15.04;33.31;94306.25;5043080;28;20079;-68
2022/01/30 03:33:11;;;;;;;194.93;160.82;;;;;;;15.06;33.32;94305.81;5066510;28;20161;-67
2022/01/30 03:35:36;;;;;;;202.85;166.98;;;;;;;15.05;33.04;94296.22;5063917;28;20458;-66
2022/01/30 03:38:02;;;;;;;196.38;159.85;;;;;;;15.03;33.20;94298.59;5040311;28;20060;-67
2022/01/30 03:40:27;;;;;;;196.60;160.82;;;;;;;15.03;33.20;94295.91;5064342;28;20040;-67
2022/01/30 03:42:53;;;;;;;200.75;165.23;;;;;;;15.04;33.14;94294.72;5061214;28;20052;-68
2022/01/30 03:45:18;;;;;;;209.00;170.43;;;;;;;15.02;33.29;94303.22;5062891;28;20070;-67
2022/01/30 03:47:44;;;;;;;198.75;163.20;;;;;;;15.02;33.22;94297.84;5064380;28;20803;-66
2022/01/30 03:50:10;;;;;;;196.45;161.02;;;;;;;15.01;33.15;94290.19;5066542;28;20048;-68
2022/01/30 03:52:35;;;;;;;212.38;174.80;;;;;;;15.01;33.22;94307.09;5063078;28;20044;-68
2022/01/30 03:55:01;;;;;;;194.98;159.13;;;;;;;15.02;33.05;94300.53;5059281;28;20040;-66
2022/01/30 03:57:26;;;;;;;196.02;162.45;;;;;;;15.04;33.01;94311.63;5066356;28;20112;-67
2022/01/30 03:59:51;;;;;;;193.65;158.13;;;;;;;15.03;33.12;94320.91;5060823;28;20055;-68
2022/01/30 04:02:17;;;;;;;197.38;161.80;;;;;;;15.01;33.20;94317.13;5062187;28;20060;-66
2022/01/30 04:04:42;;;;;;;207.50;169.80;;;;;;;14.99;33.22;94311.41;5060384;28;20047;-68
2022/01/30 04:07:08;;;;;;;197.77;164.00;;;;;;;14.99;33.24;94314.09;5061633;28;20062;-67
2022/01/30 04:09:34;;;;;;;190.05;154.05;;;;;;;14.98;33.27;94326.81;5061869;28;20882;-66
2022/01/30 04:12:00;;;;;;;201.80;165.13;;;;;;;14.96;33.10;94314.94;5061029;28;20064;-66
2022/01/30 04:14:26;;;;;;;196.73;162.13;;;;;;;14.95;32.97;94310.78;5059931;28;20067;-67
2022/01/30 04:16:52;;;;;;;213.65;172.70;;;;;;;14.98;33.09;94304.50;5063789;28;20074;-69
2022/01/30 04:19:17;;;;;;;199.32;163.70;;;;;;;14.98;32.96;94304.50;5061279;28;20431;-68
2022/01/30 04:21:43;;;;;;;197.27;161.32;;;;;;;14.99;33.02;94303.31;5065443;28;20047;-68
2022/01/30 04:24:08;;;;;;;199.30;160.52;;;;;;;15.00;33.18;94297.50;5061737;28;20059;-68
2022/01/30 04:26:34;;;;;;;191.15;156.80;;;;;;;15.01;32.91;94295.56;5061379;28;20053;-69
2022/01/30 04:29:00;;;;;;;195.07;159.82;;;;;;;14.98;33.22;94289.09;5062727;28;20058;-67
2022/01/30 04:31:26;;;;;;;195.30;159.38;;;;;;;14.99;33.08;94290.63;5062125;28;20155;-68
2022/01/30 04:33:51;;;;;;;199.70;165.00;;;;;;;14.98;33.20;94285.66;5058024;28;20067;-65
2022/01/30 04:36:23;;;;;;;201.70;165.52;;;;;;;14.96;33.21;94288.78;5059288;28;20462;-64
2022/01/30 04:52:23;;;;;;;197.73;159.20;;;;;;;14.96;33.20;94296.09;5061864;28;20502;-65
2022/01/30 05:00:35;;;;;;;197.90;159.82;;;;;;;14.95;33.14;94313.47;5062136;28;20054;-65
2022/01/30 05:08:07;;;;;;;195.77;158.15;;;;;;;14.92;33.29;94317.00;5062821;28;20087;-65
2022/01/30 05:10:33;;;;;;;197.57;161.27;;;;;;;14.93;33.19;94335.44;5061802;28;20154;-64
2022/01/30 05:13:01;;;;;;;199.75;162.52;;;;;;;14.92;33.19;94343.94;5042660;28;20213;-65
2022/01/30 05:15:28;;;;;;;196.30;159.30;;;;;;;14.94;33.24;94353.09;5062096;28;21940;-66
2022/01/30 05:17:54;;;;;;;191.20;155.43;;;;;;;14.95;33.17;94345.78;5062497;28;20545;-65
2022/01/30 05:20:20;;;;;;;198.65;163.02;;;;;;;14.96;33.30;94363.41;5058621;28;20045;-64
2022/01/30 05:22:46;;;;;;;204.45;165.13;;;;;;;14.94;33.30;94363.13;5065026;28;20415;-65
2022/01/30 05:25:13;;;;;;;196.07;159.43;;;;;;;14.97;33.17;94373.00;5063628;28;20488;-65
2022/01/30 05:27:38;;;;;;;201.15;164.00;;;;;;;15.00;33.26;94380.25;5065233;28;20053;-65
2022/01/30 05:30:05;;;;;;;205.20;168.50;;;;;;;15.00;33.28;94381.00;5067695;28;20098;-64
2022/01/30 05:32:31;;;;;;;203.55;165.30;;;;;;;15.01;33.20;94379.06;5061602;28;20056;-64
2022/01/30 05:34:57;;;;;;;198.85;163.95;;;;;;;15.02;33.14;94369.81;5062691;28;20070;-64
2022/01/30 05:37:23;;;;;;;201.07;165.10;;;;;;;15.01;33.14;94379.81;5063681;28;20127;-64
2022/01/30 05:39:49;;;;;;;194.27;159.13;;;;;;;15.03;33.12;94374.75;5067424;28;20178;-66
2022/01/30 05:42:15;;;;;;;194.85;157.52;;;;;;;15.05;33.21;94377.03;5065150;28;20130;-65
2022/01/30 05:44:53;;;;;;;198.10;161.38;;;;;;;15.05;33.23;94369.72;5063844;28;20101;-65
2022/01/30 05:47:28;;;;;;;196.93;161.32;;;;;;;15.07;32.84;94374.66;5061780;28;20043;-65
2022/01/30 05:49:53;;;;;;;195.57;160.82;;;;;;;15.08;32.86;94378.88;5064277;28;20104;-65
2022/01/30 05:52:21;;;;;;;198.32;162.52;;;;;;;15.09;33.01;94375.00;5044863;28;20134;-66
2022/01/30 05:54:48;;;;;;;200.07;162.55;;;;;;;15.10;32.95;94387.28;5058545;28;20419;-65
2022/01/30 05:57:13;;;;;;;199.65;163.23;;;;;;;15.08;33.10;94373.50;5065590;28;20059;-65
2022/01/30 05:59:39;;;;;;;196.18;161.02;;;;;;;15.09;33.03;94375.75;5063019;28;20056;-65
2022/01/30 06:02:05;;;;;;;204.15;165.73;;;;;;;15.11;33.01;94361.88;5063091;28;20108;-65
2022/01/30 06:04:30;;;;;;;192.73;159.30;;;;;;;15.13;33.06;94368.34;5065074;28;20059;-66
2022/01/30 06:06:57;;;;;;;197.20;163.05;;;;;;;15.13;33.00;94367.59;5066771;28;20036;-64
2022/01/30 06:09:23;;;;;;;197.02;163.20;;;;;;;15.13;32.74;94372.97;5066091;28;20799;-64
2022/01/30 06:11:52;;;;;;;196.52;162.45;;;;;;;15.11;32.84;94375.34;5061673;28;20142;-65
2022/01/30 06:14:19;;;;;;;202.30;166.98;;;;;;;15.12;32.84;94374.91;5065418;28;20029;-64
2022/01/30 06:16:45;;;;;;;201.85;165.43;;;;;;;15.12;32.93;94377.59;5063759;28;20536;-66
2022/01/30 06:19:11;;;;;;;199.70;163.55;;;;;;;15.12;33.01;94379.53;5059747;28;20050;-66
2022/01/30 06:21:36;;;;;;;199.07;161.50;;;;;;;15.13;33.03;94391.84;5066894;28;20048;-65
2022/01/30 06:24:02;;;;;;;198.07;161.13;;;;;;;15.13;33.04;94381.81;5061668;28;20064;-65
2022/01/30 06:26:28;;;;;;;195.52;160.90;;;;;;;15.14;32.87;94377.94;5065822;28;20593;-64
2022/01/30 06:28:54;;;;;;;208.90;170.13;;;;;;;15.17;32.96;94389.81;5061073;28;20048;-66
2022/01/30 06:31:19;;;;;;;195.85;160.23;;;;;;;15.16;32.83;94386.34;5045138;28;20460;-65
2022/01/30 06:33:45;;;;;;;192.68;156.73;;;;;;;15.13;33.28;94387.19;5058561;28;20412;-65
2022/01/30 06:36:10;;;;;;;202.30;164.75;;;;;;;15.11;33.21;94378.78;5059475;28;20071;-66
2022/01/30 06:38:36;;;;;;;191.27;157.55;;;;;;;15.11;33.08;94403.03;5061394;28;20044;-64
2022/01/30 06:41:01;;;;;;;198.13;162.85;;;;;;;15.12;33.09;94398.41;5060197;28;20047;-69
2022/01/30 06:43:28;;;;;;;190.93;157.77;;;;;;;15.10;33.26;94403.44;5060411;28;20044;-66
2022/01/30 06:45:55;;;;;;;203.07;167.15;;;;;;;15.12;33.33;94404.53;5059644;28;20105;-68
2022/01/30 06:48:21;;;;;;;193.98;158.55;;;;;;;15.15;33.17;94405.63;5063868;28;20155;-66
2022/01/30 06:50:47;;;;;;;218.88;180.00;;;;;;;15.17;33.02;94403.28;5042433;28;20143;-66
2022/01/30 06:53:13;;;;;;;197.93;163.88;;;;;;;15.14;33.40;94404.88;5061196;28;20040;-66
2022/01/30 06:55:42;;;;;;;204.30;166.85;;;;;;;15.08;33.30;94403.88;5063012;28;20516;-66
2022/01/30 06:58:14;;;;;;;188.60;154.30;;;;;;;15.10;33.46;94403.44;5066784;28;20102;-67
2022/01/30 07:00:40;;;;;;;192.27;156.45;;;;;;;15.11;33.58;94397.66;5065625;28;20055;-68
2022/01/30 07:03:06;;;;;;;192.85;158.07;;;;;;;15.12;33.31;94412.63;5065277;28;20501;-66
2022/01/30 07:05:32;;;;;;;205.82;169.68;;;;;;;15.15;33.29;94406.38;5063005;28;20135;-67
2022/01/30 07:07:58;;;;;;;192.65;155.20;;;;;;;15.11;33.64;94416.50;5062515;28;20051;-67
2022/01/30 07:10:23;;;;;;;191.20;156.25;;;;;;;15.07;33.75;94417.78;5064910;28;20048;-67
2022/01/30 07:12:48;;;;;;;198.13;161.20;;;;;;;15.07;33.65;94407.75;5063291;28;20046;-67
2022/01/30 07:15:14;;;;;;;196.20;160.77;;;;;;;15.10;33.57;94412.28;5060555;28;20044;-66
2022/01/30 07:17:41;;;;;;;202.88;164.63;;;;;;;15.10;33.76;94427.69;5062365;28;20055;-69
2022/01/30 07:20:08;;;;;;;194.00;161.13;;;;;;;15.10;33.91;94433.09;5062960;28;20424;-65
2022/01/30 07:22:34;;;;;;;230.93;188.70;;;;;;;15.09;33.75;94432.34;5049131;28;20074;-65
2022/01/30 07:24:59;;;;;;;214.57;175.65;;;;;;;15.12;33.89;94439.56;5030646;28;20970;-65
2022/01/30 07:27:25;;;;;;;218.75;178.27;;;;;;;15.14;33.89;94452.59;5048391;28;20059;-67
2022/01/30 07:29:51;;;;;;;217.60;176.70;;;;;;;15.14;33.93;94456.06;5047266;28;20530;-65
2022/01/30 07:32:17;;;;;;;214.82;176.63;;;;;;;15.14;33.76;94458.75;5032435;28;20051;-65
2022/01/30 07:34:44;;;;;;;221.63;181.57;;;;;;;15.19;33.78;94470.19;5031030;28;20071;-65
2022/01/30 07:37:11;;;;;;;213.30;176.45;;;;;;;15.19;33.79;94468.25;5049260;28;20136;-65
2022/01/30 07:39:37;;;;;;;204.95;168.15;;;;;;;15.17;33.58;94478.69;5051612;28;20044;-66
2022/01/30 07:42:04;;;;;;;224.45;184.25;;;;;;;15.14;33.75;94471.47;5050057;28;20083;-65
2022/01/30 07:44:29;;;;;;;222.90;182.75;;;;;;;15.13;34.11;94480.72;5049926;28;20161;-66
2022/01/30 07:46:55;;;;;;;217.70;177.07;;;;;;;15.13;33.98;94483.41;5031723;28;21858;-66
2022/01/30 07:49:21;;;;;;;224.35;183.52;;;;;;;15.15;33.67;94481.81;5048432;28;20079;-64
2022/01/30 07:51:46;;;;;;;217.55;176.88;;;;;;;15.19;33.72;94491.75;5049571;28;20136;-66
2022/01/30 07:54:12;;;;;;;218.82;180.30;;;;;;;15.18;33.74;94487.53;5051962;28;20063;-65
2022/01/30 07:56:37;;;;;;;211.77;175.25;;;;;;;15.18;33.68;94492.94;5046787;28;20063;-65
2022/01/30 07:59:03;;;;;;;215.68;178.55;;;;;;;15.19;33.59;94497.13;5052165;28;20048;-65
2022/01/30 08:01:29;;;;;;;217.23;176.93;;;;;;;15.20;33.80;94487.88;5051894;28;20048;-66
2022/01/30 08:03:54;;;;;;;220.00;181.18;;;;;;;15.19;33.73;94479.03;5050155;28;20052;-65
2022/01/30 08:06:20;;;;;;;221.43;180.70;;;;;;;15.19;33.62;94473.66;5052674;28;20048;-66
2022/01/30 08:08:45;;;;;;;216.40;179.13;;;;;;;15.21;33.54;94486.69;5051944;28;20047;-65
2022/01/30 08:11:11;;;;;;;226.07;186.93;;;;;;;15.18;33.87;94472.13;5048475;28;20087;-68
2022/01/30 08:13:37;;;;;;;221.02;181.95;;;;;;;15.18;33.64;94469.44;5049172;28;20527;-67
2022/01/30 08:16:03;;;;;;;214.68;176.63;;;;;;;15.19;33.86;94467.50;5050083;28;20385;-65
2022/01/30 08:18:29;;;;;;;222.32;181.25;;;;;;;15.19;33.71;94470.19;5035731;28;20072;-67
2022/01/30 08:20:55;;;;;;;225.50;184.95;;;;;;;15.16;33.93;94461.03;5049473;28;20055;-66
2022/01/30 08:23:23;;;;;;;211.57;174.25;;;;;;;15.19;33.99;94460.19;5035307;28;20049;-66
2022/01/30 08:25:48;;;;;;;217.15;172.38;;;;;;;15.18;33.86;94457.91;5048321;28;20047;-67
2022/01/30 08:28:14;;;;;;;221.20;180.07;;;;;;;15.19;33.80;94464.81;5047600;28;20060;-66
2022/01/30 08:30:40;;;;;;;219.05;179.93;;;;;;;15.17;33.81;94467.94;5048742;28;20052;-66
2022/01/30 08:33:06;;;;;;;218.90;179.13;;;;;;;15.20;33.84;94469.00;5051849;28;20075;-64
2022/01/30 08:35:32;;;;;;;219.32;182.55;;;;;;;15.19;33.92;94479.03;5049390;28;20050;-65
2022/01/30 08:37:59;;;;;;;214.93;175.70;;;;;;;15.18;33.93;94472.13;5051888;28;20048;-64
2022/01/30 08:40:25;;;;;;;216.65;173.95;;;;;;;15.16;34.01;94477.94;5049735;28;20420;-66
2022/01/30 08:42:51;;;;;;;210.63;173.68;;;;;;;15.16;34.21;94488.72;5050827;28;20503;-65
2022/01/30 08:45:19;;;;;;;219.30;180.10;;;;;;;15.18;34.06;94498.31;5052464;28;20132;-67
2022/01/30 08:47:46;;;;;;;223.88;183.48;;;;;;;15.18;34.12;94503.72;5048108;28;20083;-66
2022/01/30 08:50:14;;;;;;;216.25;178.13;;;;;;;15.19;34.08;94511.38;5050657;28;20067;-65
2022/01/30 08:52:42;;;;;;;231.45;190.52;;;;;;;15.17;33.94;94502.94;5052685;28;20203;-67
2022/01/30 08:55:09;;;;;;;222.05;181.55;;;;;;;15.14;34.10;94520.72;5034337;28;20055;-65
2022/01/30 08:57:35;;;;;;;211.00;171.68;;;;;;;15.15;34.09;94534.94;5034579;28;20056;-66
2022/01/30 09:00:04;;;;;;;213.98;173.65;;;;;;;15.17;34.16;94548.75;5054173;28;20062;-65
2022/01/30 09:02:30;;;;;;;221.05;181.40;;;;;;;15.14;34.38;94519.97;5056902;28;20070;-67
2022/01/30 09:04:55;;;;;;;218.38;178.05;;;;;;;15.10;34.41;94543.53;5055238;28;20048;-65
2022/01/30 09:07:21;;;;;;;216.75;176.18;;;;;;;15.03;34.68;94543.69;5053440;28;20048;-67
2022/01/30 09:09:47;;;;;;;214.32;175.98;;;;;;;15.03;34.42;94555.22;5055488;28;20048;-66
2022/01/30 09:12:13;;;;;;;212.80;174.45;;;;;;;15.09;34.48;94547.41;5053547;28;20961;-66
2022/01/30 09:14:40;;;;;;;219.25;180.40;;;;;;;15.07;34.50;94545.13;5055985;28;20044;-67
2022/01/30 09:17:15;;;;;;;212.73;173.70;;;;;;;15.08;34.38;94546.66;5052514;28;20076;-65
2022/01/30 09:19:43;;;;;;;216.05;176.00;;;;;;;15.06;34.50;94548.25;5056082;28;20639;-64
2022/01/30 09:22:11;;;;;;;222.52;181.05;;;;;;;15.05;34.35;94541.34;5052897;28;20420;-67
2022/01/30 09:24:38;;;;;;;220.88;178.23;;;;;;;15.05;34.44;94547.47;5054673;28;20055;-64
2022/01/30 09:27:05;;;;;;;218.73;177.23;;;;;;;15.01;34.48;94544.13;5054459;28;20051;-66
2022/01/30 09:29:31;;;;;;;219.85;181.68;;;;;;;14.99;34.89;94541.09;5054210;28;20064;-65
2022/01/30 09:31:57;;;;;;;224.38;183.13;;;;;;;14.99;34.83;94541.09;5056236;28;20051;-66
2022/01/30 09:34:23;;;;;;;222.48;182.18;;;;;;;14.95;34.78;94537.72;5052404;28;20044;-67
2022/01/30 09:36:49;;;;;;;216.88;173.63;;;;;;;14.97;34.98;94538.06;5054901;28;20059;-67
2022/01/30 09:39:14;;;;;;;214.57;175.10;;;;;;;15.02;34.87;94542.19;5055393;28;20052;-66
2022/01/30 09:41:42;;;;;;;216.43;176.40;;;;;;;15.04;34.93;94547.91;5052145;28;20706;-67
2022/01/30 09:44:09;;;;;;;218.80;177.73;;;;;;;15.03;34.94;94541.00;5056747;28;20048;-65
2022/01/30 09:46:37;;;;;;;212.02;172.73;;;;;;;14.99;34.89;94543.78;5054847;28;20056;-66
2022/01/30 09:49:04;;;;;;;217.63;178.98;;;;;;;14.99;34.97;94541.09;5060228;28;20703;-65
2022/01/30 09:51:30;;;;;;;220.23;179.35;;;;;;;14.99;35.24;94541.09;5054492;28;20032;-66
2022/01/30 09:53:55;;;;;;;213.27;174.40;;;;;;;14.97;35.05;94537.28;5054192;28;21227;-67
2022/01/30 09:56:21;;;;;;;224.00;181.20;;;;;;;14.98;35.28;94538.81;5055508;28;20052;-66
2022/01/30 09:58:49;;;;;;;201.10;164.25;;;;;;;15.02;34.99;94542.19;5042679;28;20105;-65
2022/01/30 10:01:14;;;;;;;209.70;171.55;;;;;;;15.04;35.00;94547.91;5055549;28;20047;-67
2022/01/30 10:03:40;;;;;;;221.25;181.00;;;;;;;15.02;34.98;94550.25;5036671;28;20078;-65
2022/01/30 10:06:14;;;;;;;215.43;177.27;;;;;;;14.99;35.08;94553.78;5057094;28;20053;-65
2022/01/30 10:08:45;;;;;;;214.90;175.10;;;;;;;14.97;35.19;94554.22;5054016;28;20536;-67
2022/01/30 10:11:31;;;;;;;218.40;178.45;;;;;;;14.98;35.01;94550.34;5040596;28;20052;-64
2022/01/30 10:14:14;;;;;;;214.38;173.50;;;;;;;14.97;35.14;94551.53;5055663;28;20074;-64
2022/01/30 10:16:49;;;;;;;213.75;171.35;;;;;;;14.97;35.07;94553.47;5056980;28;20055;-64
2022/01/30 10:19:20;;;;;;;224.57;182.25;;;;;;;14.97;35.33;94550.75;5055321;28;20060;-65
2022/01/30 10:21:47;;;;;;;216.38;175.10;;;;;;;14.98;35.21;94561.13;5054834;28;20048;-67
2022/01/30 10:24:25;;;;;;;207.93;167.55;;;;;;;14.97;35.18;94542.69;5048698;28;20555;-65
2022/01/30 10:26:53;;;;;;;205.25;167.80;;;;;;;14.97;35.19;94534.59;5056630;28;20070;-67
2022/01/30 10:29:31;;;;;;;221.80;180.77;;;;;;;14.96;35.05;94538.47;5052054;28;20062;-66
2022/01/30 10:32:05;;;;;;;213.52;172.90;;;;;;;14.98;35.01;94530.72;5053332;28;20059;-66
2022/01/30 10:34:32;;;;;;;220.70;179.10;;;;;;;15.01;34.87;94509.09;5052953;28;20473;-67
2022/01/30 10:37:22;;;;;;;216.85;177.68;;;;;;;15.02;34.79;94526.78;5053435;28;20473;-65
2022/01/30 10:40:04;;;;;;;213.13;174.00;;;;;;;15.01;34.74;94527.19;5050524;28;20050;-66
2022/01/30 10:42:44;;;;;;;212.27;170.68;;;;;;;15.02;34.71;94536.78;5051402;28;20521;-65
2022/01/30 10:45:19;;;;;;;215.40;175.23;;;;;;;15.03;34.74;94532.91;5054483;28;20046;-65
2022/01/30 10:47:45;;;;;;;212.45;173.80;;;;;;;15.05;34.59;94533.25;5052210;28;20140;-65
2022/01/30 10:50:14;;;;;;;207.80;170.10;;;;;;;15.06;34.48;94529.38;5053281;28;21243;-65
2022/01/30 10:52:58;;;;;;;223.07;181.82;;;;;;;15.07;34.45;94533.59;5050035;28;20353;-64
2022/01/30 10:55:36;;;;;;;220.63;179.57;;;;;;;15.09;34.32;94521.22;5051291;28;20535;-66
2022/01/30 10:58:04;;;;;;;215.48;174.25;;;;;;;15.09;34.37;94509.69;5053101;28;20074;-65
2022/01/30 11:00:48;;;;;;;221.57;180.05;;;;;;;15.06;34.24;94518.63;5048846;28;20060;-65
2022/01/30 11:03:37;;;;;;;219.80;179.07;;;;;;;15.06;34.18;94511.28;5051691;28;20090;-67
2022/01/30 11:06:08;;;;;;;214.73;173.02;;;;;;;15.08;34.18;94516.25;5051601;28;20044;-65
2022/01/30 11:08:35;;;;;;;217.25;174.55;;;;;;;15.09;34.32;94504.31;5052599;28;20044;-66
2022/01/30 11:11:10;;;;;;;216.23;177.05;;;;;;;15.10;34.17;94509.28;5050992;28;20500;-66
2022/01/30 11:13:59;;;;;;;217.05;176.65;;;;;;;15.09;34.02;94523.16;5031442;28;20870;-64
2022/01/30 11:19:12;;;;;;;214.85;175.10;;;;;;;15.04;34.05;94520.97;5050642;28;20425;-66
2022/01/30 11:21:39;;;;;;;218.88;179.65;;;;;;;15.05;34.05;94517.09;5052530;28;20047;-66
2022/01/30 11:24:07;;;;;;;220.10;179.55;;;;;;;15.07;33.91;94536.28;5051331;28;20056;-66
2022/01/30 11:26:34;;;;;;;219.43;178.07;;;;;;;15.03;34.05;94539.06;5048352;28;20576;-66
2022/01/30 11:29:00;;;;;;;214.48;176.88;;;;;;;14.98;33.94;94526.09;5049877;28;20125;-64
2022/01/30 11:31:25;;;;;;;220.07;177.60;;;;;;;15.00;34.00;94523.00;5049131;28;20048;-65
2022/01/30 11:33:53;;;;;;;217.15;176.88;;;;;;;15.00;34.13;94526.44;5051592;28;20404;-64
2022/01/30 11:36:23;;;;;;;222.65;182.25;;;;;;;15.02;33.91;94521.38;5050351;28;20471;-66
2022/01/30 11:38:49;;;;;;;215.70;176.80;;;;;;;15.04;33.88;94505.56;5055237;28;20469;-66
2022/01/30 11:41:18;;;;;;;218.65;179.60;;;;;;;15.05;33.81;94519.78;5050812;28;20052;-66
2022/01/30 11:44:19;;;;;;;218.43;176.75;;;;;;;15.05;33.94;94512.47;5048465;28;20285;-66
2022/01/30 11:46:59;;;;;;;209.77;170.43;;;;;;;15.07;33.72;94503.97;4957041;28;20208;-65
2022/01/30 11:49:40;;;;;;;217.23;177.88;;;;;;;15.09;33.95;94501.59;5041988;28;20066;-65
2022/01/30 11:52:09;;;;;;;218.45;177.38;;;;;;;15.10;33.92;94495.03;5051020;28;20044;-64